Time;durP1;ratioP1;P1;durP2;ratioP2;P2;SDS_P1;SDS_P2;PMS_P1;PMS_P2;Temp;Humidity;BMP_temperature;BMP_pressure;BME280_temperature;BME280_humidity;BME280_pressure;Samples;Min_cycle;Max_cycle;Signal;HPM_P1;HPM_P2
2022/06/12 00:01:05;;;;;;;18.92;6.07;;;12.90;99.90;;;;;;5038260;28;20040;-67
2022/06/12 00:03:33;;;;;;;26.98;6.97;;;12.80;99.90;;;;;;5034551;28;20099;-70
2022/06/12 00:06:00;;;;;;;24.02;6.30;;;12.80;99.90;;;;;;5033111;28;20041;-71
2022/06/12 00:08:28;;;;;;;24.50;6.35;;;12.80;99.90;;;;;;5016006;28;20038;-69
2022/06/12 00:10:56;;;;;;;16.63;5.78;;;12.80;99.90;;;;;;5038885;28;20375;-68
2022/06/12 00:13:30;;;;;;;22.30;5.65;;;12.80;99.90;;;;;;5043204;28;20470;-68
2022/06/12 00:15:56;;;;;;;23.38;5.88;;;12.80;99.90;;;;;;5039255;28;20438;-68
2022/06/12 00:18:22;;;;;;;21.33;6.28;;;12.80;99.90;;;;;;5052656;28;20128;-70
2022/06/12 00:21:10;;;;;;;17.05;4.57;;;12.70;99.90;;;;;;5043767;28;20037;-67
2022/06/12 00:23:34;;;;;;;15.80;5.35;;;12.70;99.90;;;;;;5065272;28;20063;-69
2022/06/12 00:26:00;;;;;;;20.10;5.25;;;12.70;99.90;;;;;;5059397;28;20123;-67
2022/06/12 00:28:25;;;;;;;11.90;4.57;;;12.70;99.90;;;;;;5052152;28;20482;-68
2022/06/12 00:30:51;;;;;;;17.70;4.80;;;12.70;99.90;;;;;;5055735;28;20040;-68
2022/06/12 00:33:16;;;;;;;17.23;5.18;;;12.70;99.90;;;;;;5050780;28;20044;-69
2022/06/12 00:35:42;;;;;;;14.70;5.43;;;12.70;99.90;;;;;;5058192;28;20028;-68
2022/06/12 00:38:08;;;;;;;16.85;4.70;;;12.70;99.90;;;;;;5061667;28;20028;-67
2022/06/12 00:40:33;;;;;;;16.55;5.72;;;12.80;99.90;;;;;;5040219;28;20497;-67
2022/06/12 00:43:02;;;;;;;17.73;5.80;;;12.80;99.90;;;;;;5063008;28;20535;-67
2022/06/12 00:45:36;;;;;;;15.93;4.85;;;12.80;99.90;;;;;;5047042;28;20037;-67
2022/06/12 00:48:31;;;;;;;14.23;4.45;;;12.80;99.90;;;;;;5062096;28;20067;-69
2022/06/12 00:51:19;;;;;;;19.30;5.03;;;12.70;99.90;;;;;;5048867;28;20079;-70
2022/06/12 00:53:58;;;;;;;15.00;4.07;;;12.70;99.90;;;;;;5063584;28;20047;-67
2022/06/12 00:56:37;;;;;;;16.98;4.20;;;12.60;99.90;;;;;;5051363;28;20035;-66
2022/06/12 00:59:10;;;;;;;13.48;4.60;;;12.60;99.90;;;;;;5065227;28;20029;-71
2022/06/12 01:01:43;;;;;;;12.98;4.20;;;12.50;99.90;;;;;;5056568;28;20039;-69
2022/06/12 01:06:57;;;;;;;20.83;5.28;;;12.20;99.90;;;;;;5060497;28;20118;-69
2022/06/12 01:09:32;;;;;;;15.77;4.90;;;12.10;99.90;;;;;;5049758;28;20541;-68
2022/06/12 01:12:00;;;;;;;17.65;5.53;;;12.00;99.90;;;;;;5062349;28;20040;-68
2022/06/12 01:14:32;;;;;;;16.77;5.57;;;12.10;99.90;;;;;;5054999;28;20132;-67
2022/06/12 01:17:00;;;;;;;21.27;5.93;;;12.00;99.90;;;;;;5055300;28;20102;-69
2022/06/12 01:19:40;;;;;;;16.38;6.50;;;12.00;99.90;;;;;;5042544;28;20541;-67
2022/06/12 01:22:30;;;;;;;19.63;5.05;;;11.90;99.90;;;;;;5022183;28;20364;-68
2022/06/12 01:25:17;;;;;;;18.60;5.90;;;11.90;99.90;;;;;;5040842;28;20033;-68
2022/06/12 01:27:46;;;;;;;16.25;6.10;;;11.80;99.90;;;;;;5026763;28;20361;-69
2022/06/12 01:30:18;;;;;;;17.50;5.70;;;11.80;99.90;;;;;;5032336;28;20030;-67
2022/06/12 01:33:00;;;;;;;18.33;5.55;;;11.80;99.90;;;;;;5034946;28;20542;-72
2022/06/12 01:35:55;;;;;;;14.70;5.45;;;11.70;99.90;;;;;;5035749;28;20045;-68
2022/06/12 01:38:36;;;;;;;16.52;5.65;;;11.70;99.90;;;;;;5034616;28;20475;-67
2022/06/12 01:41:24;;;;;;;20.20;6.28;;;11.70;99.90;;;;;;5053528;28;20684;-67
2022/06/12 01:44:19;;;;;;;20.15;6.68;;;11.60;99.90;;;;;;5037869;28;20548;-69
2022/06/12 01:47:14;;;;;;;16.23;5.82;;;11.60;99.90;;;;;;5050942;28;20024;-67
2022/06/12 01:50:15;;;;;;;18.52;5.85;;;11.70;99.90;;;;;;5031700;28;20033;-67
2022/06/12 01:52:51;;;;;;;16.92;5.63;;;11.60;99.90;;;;;;5045877;28;20053;-70
2022/06/12 01:55:56;;;;;;;13.55;5.30;;;11.50;99.90;;;;;;5043384;28;20029;-70
2022/06/12 01:58:45;;;;;;;16.52;5.68;;;11.40;99.90;;;;;;5014646;28;20087;-68
2022/06/12 02:01:29;;;;;;;16.75;5.47;;;11.30;99.90;;;;;;5034902;28;20056;-73
2022/06/12 02:04:03;;;;;;;12.10;4.95;;;11.30;99.90;;;;;;5036912;28;20167;-66
2022/06/12 02:06:35;;;;;;;16.52;5.43;;;11.30;99.90;;;;;;5051610;28;20125;-72
2022/06/12 02:09:13;;;;;;;14.85;5.25;;;11.20;99.90;;;;;;5034466;28;20679;-67
2022/06/12 02:15:08;;;;;;;17.48;6.25;;;11.30;99.90;;;;;;5050459;28;20124;-67
2022/06/12 02:17:44;;;;;;;14.32;5.53;;;11.20;99.90;;;;;;5042440;28;20059;-67
2022/06/12 02:20:14;;;;;;;13.65;5.25;;;11.20;99.90;;;;;;5017326;28;20029;-68
2022/06/12 02:22:43;;;;;;;15.48;5.00;;;11.20;99.90;;;;;;5036113;28;20031;-67
2022/06/12 02:25:19;;;;;;;12.63;4.10;;;11.20;99.90;;;;;;5045543;28;20031;-69
2022/06/12 02:27:56;;;;;;;14.63;4.28;;;11.20;99.90;;;;;;5029808;28;20546;-67
2022/06/12 02:30:27;;;;;;;15.40;5.00;;;11.30;99.90;;;;;;5015608;28;20414;-69
2022/06/12 02:33:08;;;;;;;14.90;5.25;;;11.20;99.90;;;;;;5012121;28;20037;-70
2022/06/12 02:35:40;;;;;;;13.18;5.22;;;11.20;99.90;;;;;;5029846;28;20029;-68
2022/06/12 02:38:30;;;;;;;15.07;4.80;;;11.20;99.90;;;;;;5029845;28;20510;-69
2022/06/12 02:41:05;;;;;;;18.90;6.15;;;11.20;99.90;;;;;;5030048;28;20040;-68
2022/06/12 02:43:34;;;;;;;14.10;5.03;;;11.20;99.90;;;;;;5022391;28;20112;-66
2022/06/12 02:46:10;;;;;;;14.43;5.25;;;11.10;99.90;;;;;;5028103;28;22422;-69
2022/06/12 02:48:36;;;;;;;17.13;5.22;;;11.10;99.90;;;;;;5035254;28;20025;-69
2022/06/12 02:51:26;;;;;;;14.10;5.20;;;11.10;99.90;;;;;;5057615;28;20582;-67
2022/06/12 02:54:19;;;;;;;16.63;5.60;;;11.00;99.90;;;;;;5020948;28;20041;-67
2022/06/12 02:56:51;;;;;;;15.02;5.38;;;10.90;99.90;;;;;;5038193;28;20764;-69
2022/06/12 02:59:43;;;;;;;12.15;4.68;;;10.90;99.90;;;;;;5030992;28;20033;-67
2022/06/12 03:02:46;;;;;;;13.65;5.47;;;10.90;99.90;;;;;;5032467;28;20095;-70
2022/06/12 03:05:26;;;;;;;12.70;4.75;;;10.90;99.90;;;;;;5024245;28;20098;-66
2022/06/12 03:07:59;;;;;;;11.93;4.68;;;11.00;99.90;;;;;;5041337;28;20522;-67
2022/06/12 03:10:36;;;;;;;14.77;4.90;;;10.90;99.90;;;;;;5033984;28;20048;-67
2022/06/12 03:13:05;;;;;;;11.25;4.55;;;10.90;99.90;;;;;;5042032;28;20537;-68
2022/06/12 03:15:45;;;;;;;11.90;4.40;;;10.90;99.90;;;;;;5019283;28;20890;-67
2022/06/12 03:18:35;;;;;;;13.85;4.85;;;10.90;99.90;;;;;;5041614;28;20040;-66
2022/06/12 03:21:07;;;;;;;14.57;5.07;;;10.90;99.90;;;;;;5021588;28;20033;-69
2022/06/12 03:23:37;;;;;;;15.80;5.30;;;10.80;99.90;;;;;;5043543;28;20033;-69
2022/06/12 03:26:07;;;;;;;14.20;5.00;;;10.80;99.90;;;;;;5017541;28;20041;-66
2022/06/12 03:28:45;;;;;;;12.90;4.38;;;10.80;99.90;;;;;;5041769;28;20059;-67
2022/06/12 03:31:30;;;;;;;18.73;4.95;;;10.80;99.90;;;;;;5048908;28;20593;-71
2022/06/12 03:34:04;;;;;;;17.00;5.57;;;10.80;99.90;;;;;;5044085;28;20025;-66
2022/06/12 03:36:43;;;;;;;13.35;4.63;;;10.80;99.90;;;;;;5046114;28;20064;-67
2022/06/12 03:39:22;;;;;;;13.95;4.32;;;10.80;99.90;;;;;;5026379;28;20064;-67
2022/06/12 03:41:56;;;;;;;12.85;4.05;;;10.70;99.90;;;;;;5021563;28;20041;-68
2022/06/12 03:44:39;;;;;;;12.40;4.13;;;10.70;99.90;;;;;;5039319;28;20467;-68
2022/06/12 03:47:16;;;;;;;12.07;4.07;;;10.60;99.90;;;;;;5032615;28;20126;-68
2022/06/12 03:49:47;;;;;;;9.20;3.85;;;10.70;99.90;;;;;;5015044;28;20037;-69
2022/06/12 03:52:16;;;;;;;8.52;3.58;;;10.70;99.90;;;;;;5036759;28;22056;-67
2022/06/12 03:55:08;;;;;;;10.30;3.05;;;10.60;99.90;;;;;;5049394;28;20648;-67
2022/06/12 03:57:51;;;;;;;10.30;3.47;;;10.50;99.90;;;;;;5044528;28;20068;-67
2022/06/12 04:00:23;;;;;;;9.80;3.88;;;10.50;99.90;;;;;;5037813;28;20027;-67
2022/06/12 04:02:58;;;;;;;10.88;3.85;;;10.40;99.90;;;;;;5035198;28;20033;-66
2022/06/12 04:05:30;;;;;;;10.32;3.97;;;10.40;99.90;;;;;;5017133;28;20497;-70
2022/06/12 04:07:58;;;;;;;8.98;3.50;;;10.30;99.90;;;;;;5020424;28;20036;-67
2022/06/12 04:10:29;;;;;;;13.80;4.38;;;10.30;99.90;;;;;;5035802;28;20040;-67
2022/06/12 04:12:56;;;;;;;13.02;4.20;;;10.30;99.90;;;;;;5018643;28;20025;-67
2022/06/12 04:15:42;;;;;;;8.00;3.80;;;10.30;99.90;;;;;;5045127;28;20387;-66
2022/06/12 04:18:08;;;;;;;11.75;3.85;;;10.20;99.90;;;;;;5066940;28;20068;-68
2022/06/12 04:20:46;;;;;;;9.43;3.70;;;10.20;99.90;;;;;;5065858;28;20122;-66
2022/06/12 04:23:42;;;;;;;11.13;3.70;;;10.20;99.90;;;;;;5056033;28;20029;-68
2022/06/12 04:26:31;;;;;;;13.60;4.50;;;10.30;99.90;;;;;;5057742;28;20040;-67
2022/06/12 04:29:23;;;;;;;12.90;4.57;;;10.20;99.90;;;;;;5059872;28;22272;-66
2022/06/12 04:31:53;;;;;;;13.50;4.45;;;10.20;99.90;;;;;;5055079;28;20028;-68
2022/06/12 04:34:20;;;;;;;11.80;4.20;;;10.20;99.90;;;;;;5065222;28;20035;-68
2022/06/12 04:36:49;;;;;;;12.57;3.78;;;10.20;99.90;;;;;;5044012;28;20048;-66
2022/06/12 04:39:18;;;;;;;10.60;4.30;;;10.10;99.90;;;;;;5044604;28;20557;-66
2022/06/12 04:41:45;;;;;;;12.98;5.10;;;10.10;99.90;;;;;;5067364;28;20373;-67
2022/06/12 04:44:11;;;;;;;12.13;5.10;;;10.10;99.90;;;;;;5058297;28;20040;-70
2022/06/12 04:46:43;;;;;;;12.77;4.90;;;10.10;99.90;;;;;;5061560;28;20218;-67
2022/06/12 04:49:13;;;;;;;14.10;5.32;;;10.20;99.90;;;;;;5055754;28;20040;-66
2022/06/12 04:51:39;;;;;;;;;;;10.10;99.90;;;;;;5062672;28;20043;-66
2022/06/12 04:54:05;;;;;;;10.52;4.47;;;10.20;99.90;;;;;;5050275;28;19909;-68
2022/06/12 04:56:34;;;;;;;7.88;3.55;;;10.20;99.90;;;;;;5063638;28;20032;-65
2022/06/12 04:59:00;;;;;;;8.52;4.07;;;10.20;99.90;;;;;;5049863;28;20048;-66
2022/06/12 05:01:26;;;;;;;10.52;5.03;;;10.30;99.90;;;;;;5053396;28;20040;-66
2022/06/12 05:03:52;;;;;;;20.38;6.70;;;10.40;99.90;;;;;;5063087;28;20375;-67
2022/06/12 05:06:18;;;;;;;15.32;5.43;;;10.40;99.90;;;;;;5063954;28;20040;-71
2022/06/12 05:08:47;;;;;;;13.68;5.10;;;10.50;99.90;;;;;;5033687;28;21947;-66
2022/06/12 05:11:14;;;;;;;13.15;5.45;;;10.50;99.90;;;;;;5044187;28;20028;-66
2022/06/12 05:13:39;;;;;;;15.73;5.13;;;10.60;99.90;;;;;;5060510;28;20074;-68
2022/06/12 05:16:06;;;;;;;18.30;5.72;;;10.60;99.90;;;;;;5068822;28;20051;-66
2022/06/12 05:18:32;;;;;;;16.15;5.70;;;10.70;99.90;;;;;;5050502;28;20040;-66
2022/06/12 05:20:58;;;;;;;14.05;5.90;;;10.80;99.90;;;;;;5055359;28;20085;-67
2022/06/12 05:23:23;;;;;;;17.23;5.55;;;10.80;99.90;;;;;;5067142;28;20033;-66
2022/06/12 05:25:50;;;;;;;13.75;5.63;;;10.90;99.90;;;;;;5057935;28;20037;-67
2022/06/12 05:28:19;;;;;;;12.05;4.93;;;10.90;99.90;;;;;;5056763;28;20024;-66
2022/06/12 05:30:45;;;;;;;12.98;5.10;;;11.00;99.90;;;;;;5063981;28;20037;-69
2022/06/12 05:33:11;;;;;;;14.65;5.55;;;11.20;99.90;;;;;;5067599;28;20468;-70
2022/06/12 05:35:38;;;;;;;12.73;5.38;;;11.20;99.90;;;;;;5038264;28;20550;-67
2022/06/12 05:38:06;;;;;;;16.48;5.43;;;11.30;99.90;;;;;;5063176;28;20032;-66
2022/06/12 05:40:34;;;;;;;14.60;5.05;;;11.40;99.90;;;;;;5052911;28;20024;-67
2022/06/12 05:43:00;;;;;;;17.27;5.13;;;11.50;99.90;;;;;;5056040;28;20575;-67
2022/06/12 05:45:28;;;;;;;19.23;5.20;;;11.60;99.90;;;;;;5058854;28;20033;-67
2022/06/12 05:48:02;;;;;;;15.85;4.25;;;11.70;99.90;;;;;;5046883;28;20024;-67
2022/06/12 05:50:31;;;;;;;16.67;4.93;;;11.80;99.90;;;;;;5053443;28;20479;-67
2022/06/12 05:52:58;;;;;;;19.80;5.15;;;11.90;99.90;;;;;;5062648;28;20024;-67
2022/06/12 05:55:24;;;;;;;14.32;4.60;;;12.00;99.90;;;;;;5053734;28;20031;-68
2022/06/12 05:57:50;;;;;;;14.88;4.63;;;12.10;99.90;;;;;;5060759;28;20056;-66
2022/06/12 06:00:22;;;;;;;17.10;5.10;;;12.20;99.90;;;;;;5049055;28;20044;-66
2022/06/12 06:02:47;;;;;;;13.55;4.55;;;12.30;99.90;;;;;;5061806;28;20432;-65
2022/06/12 06:05:14;;;;;;;15.60;4.80;;;12.40;99.90;;;;;;5056286;28;20464;-68
2022/06/12 06:07:40;;;;;;;11.15;4.45;;;12.40;99.90;;;;;;5043393;28;20029;-66
2022/06/12 06:10:12;;;;;;;16.90;4.82;;;12.50;99.90;;;;;;5062385;28;20082;-66
2022/06/12 06:12:38;;;;;;;17.00;4.35;;;12.50;99.90;;;;;;5046360;28;20054;-67
2022/06/12 06:15:05;;;;;;;15.50;4.47;;;12.60;99.90;;;;;;5041901;28;20071;-69
2022/06/12 06:17:30;;;;;;;12.35;4.18;;;12.70;99.90;;;;;;5060337;28;20545;-65
2022/06/12 06:19:56;;;;;;;20.20;4.72;;;12.80;99.90;;;;;;5052620;28;20020;-67
2022/06/12 06:22:22;;;;;;;16.90;4.47;;;12.80;99.90;;;;;;5064770;28;20024;-66
2022/06/12 06:24:48;;;;;;;16.25;4.22;;;12.90;99.90;;;;;;5054186;28;20112;-72
2022/06/12 06:27:15;;;;;;;16.73;5.00;;;13.10;99.90;;;;;;5061802;28;20035;-67
2022/06/12 06:29:41;;;;;;;17.20;4.85;;;13.20;99.90;;;;;;5033773;28;20028;-67
2022/06/12 06:32:08;;;;;;;18.10;4.75;;;13.20;99.90;;;;;;5053386;28;20024;-69
2022/06/12 06:34:36;;;;;;;16.58;4.93;;;13.30;99.90;;;;;;5045664;28;20032;-67
2022/06/12 06:37:05;;;;;;;13.98;4.75;;;13.40;99.90;;;;;;5053766;28;20040;-69
2022/06/12 06:39:31;;;;;;;18.55;4.63;;;13.50;99.90;;;;;;5052750;28;20167;-70
2022/06/12 06:41:57;;;;;;;15.75;3.97;;;13.60;99.90;;;;;;5053096;28;20111;-71
2022/06/12 06:47:07;;;;;;;16.70;3.65;;;13.80;99.90;;;;;;5054539;28;20059;-67
2022/06/12 06:49:33;;;;;;;14.23;3.60;;;13.90;99.90;;;;;;5057939;28;20394;-67
2022/06/12 06:51:59;;;;;;;16.92;4.07;;;14.00;99.90;;;;;;5050454;28;20048;-68
2022/06/12 06:54:25;;;;;;;12.93;3.42;;;14.10;99.90;;;;;;5043715;28;20399;-67
2022/06/12 06:56:51;;;;;;;14.10;3.72;;;14.20;99.90;;;;;;5059593;28;20112;-68
2022/06/12 06:59:17;;;;;;;12.82;3.35;;;14.30;99.90;;;;;;5054551;28;20284;-66
2022/06/12 07:01:43;;;;;;;14.95;3.83;;;14.40;99.90;;;;;;5065621;28;20032;-69
2022/06/12 07:04:08;;;;;;;16.67;3.90;;;14.50;99.90;;;;;;5063654;28;20251;-67
2022/06/12 07:06:34;;;;;;;12.50;3.47;;;14.60;99.90;;;;;;5037065;28;20028;-68
2022/06/12 07:09:00;;;;;;;13.35;3.50;;;14.60;99.90;;;;;;5057453;28;20091;-66
2022/06/12 07:11:27;;;;;;;11.10;3.17;;;14.70;99.90;;;;;;5061537;28;20036;-66
2022/06/12 07:13:53;;;;;;;17.75;3.80;;;14.80;99.90;;;;;;5059415;28;20025;-69
2022/06/12 07:16:20;;;;;;;14.10;3.60;;;14.90;99.90;;;;;;5055830;28;20447;-68
2022/06/12 07:18:46;;;;;;;10.27;3.50;;;15.10;99.90;;;;;;5023594;28;20045;-67
2022/06/12 07:21:12;;;;;;;10.55;3.60;;;15.20;99.90;;;;;;5037887;28;20032;-68
2022/06/12 07:23:40;;;;;;;12.90;3.30;;;15.30;99.90;;;;;;5043604;28;20078;-67
2022/06/12 07:26:16;;;;;;;12.43;2.58;;;15.40;99.90;;;;;;5041146;28;20033;-68
2022/06/12 07:28:42;;;;;;;13.75;3.25;;;15.50;99.90;;;;;;5029955;28;20035;-68
2022/06/12 07:31:08;;;;;;;11.70;3.15;;;15.60;99.90;;;;;;5040353;28;20136;-70
2022/06/12 07:33:34;;;;;;;12.43;3.00;;;15.70;99.90;;;;;;5042451;28;20086;-70
2022/06/12 07:36:00;;;;;;;11.27;2.95;;;15.90;99.90;;;;;;5023729;28;20118;-67
2022/06/12 07:38:27;;;;;;;19.38;3.58;;;15.90;99.90;;;;;;5039240;28;20546;-68
2022/06/12 07:40:59;;;;;;;11.75;2.80;;;16.00;99.90;;;;;;5034062;28;20021;-68
2022/06/12 07:43:27;;;;;;;14.32;2.95;;;16.00;99.90;;;;;;5037279;28;20516;-67
2022/06/12 07:45:54;;;;;;;18.00;3.75;;;16.10;99.90;;;;;;5025074;28;20040;-67
2022/06/12 07:48:22;;;;;;;11.18;2.97;;;16.10;99.90;;;;;;5042387;28;20036;-70
2022/06/12 07:50:48;;;;;;;14.63;2.72;;;16.10;99.90;;;;;;5027729;28;20033;-68
2022/06/12 07:53:15;;;;;;;9.10;2.65;;;16.10;99.90;;;;;;5030847;28;20152;-69
2022/06/12 07:55:42;;;;;;;11.68;2.90;;;16.20;99.90;;;;;;5034261;28;20471;-67
2022/06/12 07:58:09;;;;;;;15.57;3.47;;;16.30;99.90;;;;;;5039523;28;20029;-68
2022/06/12 08:00:36;;;;;;;14.27;3.05;;;16.40;99.90;;;;;;5037232;28;20025;-69
2022/06/12 08:03:02;;;;;;;11.82;2.90;;;16.40;99.90;;;;;;5039090;28;20021;-67
2022/06/12 08:05:28;;;;;;;12.52;3.05;;;16.50;98.20;;;;;;5036057;28;20033;-69
2022/06/12 08:07:54;;;;;;;10.00;2.83;;;16.60;99.00;;;;;;5042909;28;20033;-68
2022/06/12 08:10:19;;;;;;;11.63;2.88;;;16.70;98.20;;;;;;5032287;28;20036;-69
2022/06/12 08:12:46;;;;;;;10.25;2.58;;;16.70;97.90;;;;;;5040361;28;20032;-67
2022/06/12 08:15:18;;;;;;;13.07;2.83;;;16.80;97.20;;;;;;5026867;28;20027;-67
2022/06/12 08:17:44;;;;;;;10.45;2.72;;;16.90;97.90;;;;;;5050112;28;20040;-72
2022/06/12 08:20:25;;;;;;;9.13;2.67;;;16.90;97.20;;;;;;5055570;28;20032;-68
2022/06/12 08:22:58;;;;;;;11.35;2.53;;;17.00;97.00;;;;;;5061593;28;20025;-69
2022/06/12 08:25:25;;;;;;;8.10;2.20;;;17.10;95.60;;;;;;5056640;28;20123;-68
2022/06/12 08:27:51;;;;;;;8.98;2.20;;;17.10;93.00;;;;;;5063337;28;21743;-69
2022/06/12 08:30:17;;;;;;;9.30;1.90;;;17.20;93.40;;;;;;5040963;28;20055;-67
2022/06/12 08:32:46;;;;;;;10.80;2.00;;;17.20;92.20;;;;;;5061101;28;20137;-67
2022/06/12 08:35:16;;;;;;;8.50;2.33;;;17.30;92.00;;;;;;5061735;28;20086;-68
2022/06/12 08:37:42;;;;;;;7.03;1.88;;;17.40;93.70;;;;;;5042587;28;20037;-68
2022/06/12 08:40:17;;;;;;;7.53;1.85;;;17.40;91.70;;;;;;5062349;28;20032;-72
2022/06/12 08:43:04;;;;;;;10.57;2.50;;;17.40;91.10;;;;;;5052539;28;20114;-71
2022/06/12 08:45:38;;;;;;;8.13;2.40;;;17.50;91.70;;;;;;5060091;28;20090;-70
2022/06/12 08:48:25;;;;;;;9.45;2.53;;;17.50;90.90;;;;;;5058600;28;20027;-69
2022/06/12 08:51:02;;;;;;;9.68;2.40;;;17.60;91.30;;;;;;5063212;28;20021;-68
2022/06/12 08:53:50;;;;;;;9.15;2.00;;;17.60;90.00;;;;;;5076906;28;20027;-70
2022/06/12 08:56:28;;;;;;;9.00;2.55;;;17.60;89.90;;;;;;5049562;28;20025;-71
2022/06/12 08:58:57;;;;;;;8.77;2.65;;;17.60;90.30;;;;;;5049921;28;20675;-67
2022/06/12 09:01:22;;;;;;;9.43;2.28;;;17.70;92.00;;;;;;5054865;28;20466;-70
2022/06/12 09:03:53;;;;;;;8.05;2.13;;;17.80;92.30;;;;;;5059009;28;20534;-69
2022/06/12 09:06:31;;;;;;;8.38;2.78;;;18.00;92.60;;;;;;5040179;28;20131;-69
2022/06/12 09:09:19;;;;;;;11.10;2.63;;;18.10;91.40;;;;;;5053827;28;20132;-70
2022/06/12 09:11:50;;;;;;;11.07;2.38;;;18.20;91.40;;;;;;5051130;28;20027;-68
2022/06/12 09:14:34;;;;;;;9.70;2.50;;;18.20;91.20;;;;;;5061151;28;20033;-69
2022/06/12 09:17:09;;;;;;;10.65;2.72;;;18.20;90.50;;;;;;5069595;28;20059;-68
2022/06/12 09:19:44;;;;;;;11.63;2.90;;;18.30;90.80;;;;;;5049952;28;20028;-68
2022/06/12 09:22:28;;;;;;;11.65;2.72;;;18.40;91.40;;;;;;5066010;28;20410;-69
2022/06/12 09:25:01;;;;;;;9.13;2.40;;;18.50;92.10;;;;;;5050176;28;20036;-69
2022/06/12 09:27:48;;;;;;;10.02;2.45;;;18.50;91.40;;;;;;5067161;28;20603;-69
2022/06/12 09:30:22;;;;;;;8.85;2.13;;;18.60;91.20;;;;;;5056605;28;20032;-68
2022/06/12 09:32:51;;;;;;;9.60;2.08;;;18.70;88.90;;;;;;5062901;28;20016;-68
2022/06/12 09:35:52;;;;;;;6.80;1.83;;;18.80;83.30;;;;;;5040382;28;20037;-69
2022/06/12 09:38:39;;;;;;;8.70;2.08;;;18.90;85.30;;;;;;5058886;28;20485;-68
2022/06/12 09:41:14;;;;;;;7.63;2.08;;;19.00;84.30;;;;;;5061055;28;20028;-69
2022/06/12 09:44:11;;;;;;;7.10;1.98;;;19.00;85.60;;;;;;5039305;28;20051;-67
2022/06/12 09:47:04;;;;;;;7.28;1.85;;;19.10;84.10;;;;;;5053547;28;20040;-68
2022/06/12 09:49:32;;;;;;;6.55;1.80;;;19.20;86.00;;;;;;5055731;28;20043;-70
2022/06/12 09:52:12;;;;;;;8.60;2.17;;;19.30;87.60;;;;;;5063004;28;20462;-66
2022/06/12 09:55:02;;;;;;;9.70;2.97;;;19.40;85.50;;;;;;5047916;28;20036;-69
2022/06/12 09:57:31;;;;;;;8.23;2.03;;;19.30;83.20;;;;;;5062955;28;20036;-68
2022/06/12 10:00:06;;;;;;;8.70;2.25;;;19.40;80.90;;;;;;5069323;28;20057;-69
2022/06/12 10:02:35;;;;;;;12.68;2.63;;;19.40;80.00;;;;;;5047488;28;20553;-70
2022/06/12 10:05:27;;;;;;;;;;;19.40;83.20;;;;;;5047661;28;20025;-69
2022/06/12 10:07:53;;;;;;;7.55;2.10;;;19.30;80.10;;;;;;5055280;28;20336;-69
2022/06/12 10:10:32;;;;;;;8.13;2.00;;;19.40;80.00;;;;;;5049820;28;20032;-72
2022/06/12 10:13:04;;;;;;;10.50;2.08;;;19.70;79.10;;;;;;5060549;28;20467;-69
2022/06/12 10:15:45;;;;;;;7.00;2.10;;;19.60;81.30;;;;;;5030947;28;20075;-69
2022/06/12 10:18:24;;;;;;;8.75;2.22;;;19.40;77.40;;;;;;5050222;28;20109;-70
2022/06/12 10:20:55;;;;;;;11.77;2.65;;;19.40;86.20;;;;;;5049987;28;20064;-68
2022/06/12 10:23:21;;;;;;;12.48;3.10;;;19.40;92.30;;;;;;5068430;28;20067;-69
2022/06/12 10:25:51;;;;;;;10.05;2.88;;;19.30;94.20;;;;;;5066251;28;20024;-69
2022/06/12 10:28:20;;;;;;;10.75;2.75;;;19.10;94.50;;;;;;5046563;28;20033;-70
2022/06/12 10:31:09;;;;;;;13.00;3.10;;;18.90;96.00;;;;;;5049970;28;20060;-69
2022/06/12 10:33:43;;;;;;;11.25;2.88;;;18.60;95.60;;;;;;5042681;28;20033;-68
2022/06/12 10:36:20;;;;;;;10.90;2.90;;;18.50;96.90;;;;;;5063210;28;20127;-69
2022/06/12 10:38:46;;;;;;;11.25;3.28;;;18.80;97.50;;;;;;5066731;28;20029;-67
2022/06/12 10:41:25;;;;;;;10.18;3.08;;;19.30;96.20;;;;;;5067901;28;20482;-68
2022/06/12 10:43:54;;;;;;;12.10;3.22;;;19.60;96.10;;;;;;5061619;28;20079;-69
2022/06/12 10:46:23;;;;;;;9.02;2.67;;;20.00;97.00;;;;;;5046074;28;20112;-69
2022/06/12 10:49:19;;;;;;;12.32;3.10;;;20.20;94.50;;;;;;5030173;28;20430;-69
2022/06/12 10:51:46;;;;;;;12.10;2.95;;;20.30;93.20;;;;;;5032607;28;20032;-70
2022/06/12 10:54:16;;;;;;;12.65;3.00;;;20.40;94.80;;;;;;5067034;28;20038;-68
2022/06/12 10:57:04;;;;;;;10.48;3.22;;;20.60;93.90;;;;;;5077261;28;20115;-68
2022/06/12 10:59:45;;;;;;;10.98;3.35;;;20.70;91.30;;;;;;5059420;28;20111;-71
2022/06/12 11:02:20;;;;;;;13.10;3.22;;;20.80;93.50;;;;;;5056571;28;20024;-70
2022/06/12 11:04:56;;;;;;;13.18;3.20;;;20.90;89.40;;;;;;5060882;28;20089;-71
2022/06/12 11:07:49;;;;;;;12.45;3.13;;;21.00;87.20;;;;;;5031770;28;20479;-71
2022/06/12 11:10:27;;;;;;;12.85;3.15;;;21.50;88.50;;;;;;5037503;28;20056;-69
2022/06/12 11:13:13;;;;;;;11.88;3.00;;;22.20;86.30;;;;;;5058444;28;20024;-72
2022/06/12 11:15:58;;;;;;;10.40;3.20;;;22.00;86.20;;;;;;5057085;28;20048;-68
2022/06/12 11:18:27;;;;;;;13.70;2.95;;;22.00;87.10;;;;;;5051775;28;20622;-70
2022/06/12 11:21:20;;;;;;;12.65;3.25;;;21.80;84.80;;;;;;5052056;28;20497;-68
2022/06/12 11:23:52;;;;;;;13.43;3.28;;;21.10;86.00;;;;;;5054561;28;20048;-68
2022/06/12 11:26:56;;;;;;;14.25;3.10;;;20.30;90.20;;;;;;5051784;28;20040;-71
2022/06/12 11:29:41;;;;;;;12.05;3.00;;;20.30;88.70;;;;;;5035756;28;20056;-69
2022/06/12 11:32:09;;;;;;;11.00;3.28;;;20.90;88.80;;;;;;5058193;28;20029;-69
2022/06/12 11:34:42;;;;;;;14.60;3.57;;;21.00;90.50;;;;;;5062327;28;20036;-69
2022/06/12 11:37:26;;;;;;;12.23;3.13;;;21.00;90.10;;;;;;5059228;28;20023;-68
2022/06/12 11:40:03;;;;;;;8.93;2.95;;;21.00;88.30;;;;;;5061818;28;20032;-69
2022/06/12 11:42:35;;;;;;;8.52;2.70;;;20.80;86.80;;;;;;5060306;28;20032;-69
2022/06/12 11:45:13;;;;;;;13.40;3.40;;;20.40;87.00;;;;;;5040896;28;20028;-70
2022/06/12 11:48:03;;;;;;;10.82;2.70;;;20.20;89.50;;;;;;5052750;28;20040;-67
2022/06/12 11:50:34;;;;;;;9.73;3.60;;;20.00;91.40;;;;;;5071059;28;20079;-70
2022/06/12 11:53:18;;;;;;;13.10;2.90;;;19.90;92.10;;;;;;5044677;28;20398;-69
2022/06/12 11:55:52;;;;;;;11.95;3.25;;;19.70;92.80;;;;;;5066179;28;20116;-70
2022/06/12 11:58:40;;;;;;;10.02;3.25;;;19.50;93.30;;;;;;5039806;28;20036;-68
2022/06/12 12:01:36;;;;;;;14.30;3.58;;;19.50;94.90;;;;;;5062022;28;20477;-69
2022/06/12 12:04:33;;;;;;;13.20;3.33;;;19.80;94.60;;;;;;5051199;28;20064;-70
2022/06/12 12:07:17;;;;;;;12.23;3.22;;;20.00;93.30;;;;;;5061040;28;20120;-71
2022/06/12 12:10:18;;;;;;;11.45;3.25;;;20.30;93.40;;;;;;5051140;28;20075;-69
2022/06/12 12:12:48;;;;;;;10.52;3.15;;;20.30;91.20;;;;;;5056788;28;20737;-68
2022/06/12 12:15:20;;;;;;;16.48;3.53;;;20.30;92.70;;;;;;5038607;28;20029;-68
2022/06/12 12:17:48;;;;;;;13.25;3.10;;;20.30;91.10;;;;;;5058251;28;20048;-69
2022/06/12 12:20:25;;;;;;;11.63;3.28;;;20.50;92.50;;;;;;5060364;28;20537;-70
2022/06/12 12:23:00;;;;;;;11.73;3.10;;;20.40;92.70;;;;;;5062623;28;20389;-69
2022/06/12 12:25:36;;;;;;;13.82;3.08;;;20.50;92.60;;;;;;5064457;28;20023;-68
2022/06/12 12:28:18;;;;;;;10.50;3.20;;;20.60;90.80;;;;;;5070259;28;20027;-71
2022/06/12 12:30:45;;;;;;;11.52;3.70;;;20.40;90.70;;;;;;5063366;28;20569;-71
2022/06/12 12:33:17;;;;;;;11.95;2.97;;;20.40;88.30;;;;;;5060658;28;20486;-70
2022/06/12 12:41:40;;;;;;;9.25;2.58;;;21.30;91.40;;;;;;5056318;28;20036;-69
2022/06/12 12:44:06;;;;;;;15.07;3.03;;;21.20;91.10;;;;;;5057971;28;20036;-70
2022/06/12 12:47:02;;;;;;;14.80;3.20;;;21.00;87.80;;;;;;5053000;28;20505;-71
2022/06/12 12:49:34;;;;;;;12.30;2.80;;;20.80;90.70;;;;;;5033609;28;20478;-69
2022/06/12 12:52:20;;;;;;;12.18;3.20;;;20.90;91.40;;;;;;5057137;28;20036;-69
2022/06/12 12:54:56;;;;;;;13.82;2.65;;;20.90;90.50;;;;;;5040601;28;20041;-68
2022/06/12 12:57:41;;;;;;;13.10;3.10;;;20.90;92.30;;;;;;5062887;28;20024;-69
2022/06/12 13:00:19;;;;;;;14.48;2.80;;;20.90;86.30;;;;;;5054017;28;21417;-70
2022/06/12 13:03:26;;;;;;;8.32;2.72;;;21.00;87.50;;;;;;5061056;28;20060;-74
2022/06/12 13:06:03;;;;;;;10.18;3.20;;;21.10;87.00;;;;;;5061265;28;20047;-70
2022/06/12 13:08:41;;;;;;;12.10;3.05;;;21.00;85.10;;;;;;5061680;28;20040;-72
2022/06/12 13:11:58;;;;;;;10.75;3.13;;;20.90;87.00;;;;;;5058267;28;20065;-70
2022/06/12 13:14:48;;;;;;;11.00;2.67;;;20.80;85.40;;;;;;4991684;28;20042;-69
2022/06/12 13:17:37;;;;;;;14.48;3.08;;;20.90;88.70;;;;;;4984006;28;20129;-71
2022/06/12 13:20:23;;;;;;;12.73;3.50;;;21.10;86.90;;;;;;4978602;28;20070;-69
2022/06/12 13:23:00;;;;;;;12.07;3.03;;;21.20;88.70;;;;;;4981507;28;20030;-68
2022/06/12 13:25:38;;;;;;;11.77;3.10;;;21.10;86.10;;;;;;4976979;28;20435;-71
2022/06/12 13:28:04;;;;;;;12.57;3.25;;;21.00;84.10;;;;;;4979370;28;20511;-67
2022/06/12 13:30:38;;;;;;;11.57;3.20;;;20.90;87.40;;;;;;4975963;28;20233;-69